METAR Data
IDs: Format: Raw Decoded Include TAF

Data at: 1635 UTC 21 Sep 2018

KSMN 211556Z AUTO 00000KT 10SM CLR 07/M02 A3024 RMK AO2 SLP249 T00671022
KSMN 211456Z AUTO 00000KT 10SM CLR 03/00 A3025 RMK AO2 SLP253 T00330000 52011
KSMN 211356Z AUTO 00000KT 10SM CLR 00/M03 A3024 RMK AO2 SLP252 T00001028 FZRANO
KSMN 211256Z AUTO 00000KT 10SM CLR 00/M03 A3022 RMK AO2 SLP239 T00001028 FZRANO
KSMN 211156Z AUTO 00000KT 10SM CLR 01/M03 A3021 RMK AO2 SLP232 T00111028 10056 20006 53009 FZRANO
KSMN 211056Z AUTO 00000KT 10SM CLR 01/M01 A3020 RMK AO2 SLP226 T00111011 FZRANO
KSMN 210956Z AUTO 00000KT 10SM CLR 02/M02 A3019 RMK AO2 SLP222 T00171022 FZRANO
KSMN 210856Z AUTO 00000KT 10SM CLR 03/M02 A3018 RMK AO2 SLP219 T00281017 51009
KSMN 210756Z AUTO 00000KT 10SM CLR 03/M01 A3018 RMK AO2 SLP221 T00281011
KSMN 210656Z AUTO 00000KT 10SM CLR 03/M02 A3017 RMK AO2 SLP218 T00331017 401940022
KSMN 210556Z AUTO 00000KT 10SM CLR 05/M01 A3015 RMK AO2 SLP210 T00501006 10189 20050 51016
KSMN 210456Z AUTO 32003KT 10SM CLR 06/00 A3014 RMK AO2 SLP209 T00610000
KSMN 210356Z AUTO 00000KT 10SM CLR 09/M01 A3012 RMK AO2 SLP204 T00891011
KSMN 210256Z AUTO 00000KT 10SM CLR 11/M02 A3009 RMK AO2 SLP196 T01061017 53019
KSMN 210156Z AUTO 15004KT 10SM CLR 13/M01 A3006 RMK AO2 SLP185 T01281006
KSMN 210056Z AUTO 22003KT 10SM CLR 17/05 A3004 RMK AO2 SLP173 T01670050
KSMN 202356Z AUTO 00000KT 10SM CLR 19/00 A3003 RMK AO2 SLP166 T01890000 10194 20144 55005
KSMN 202256Z AUTO 01005KT 10SM CLR 19/M01 A3003 RMK AO2 SLP160 T01941006
KSMN 202156Z AUTO VRB03KT 10SM CLR 19/M01 A3003 RMK AO2 SLP162 T01891006
KSMN 202056Z AUTO 35006KT 10SM CLR 18/00 A3005 RMK AO2 SLP168 T01830000 58016
KSMN 201956Z AUTO 32006KT 10SM CLR 17/01 A3007 RMK AO2 SLP175 T01720011
KSMN 201856Z AUTO 00000KT 10SM CLR 16/01 A3009 RMK AO2 SLP183 T01610006
KSMN 201756Z AUTO 01005KT 10SM CLR 14/01 A3010 RMK AO2 SLP190 T01440011 10144 20022 50001
KSMN 201656Z AUTO 00000KT 10SM CLR 12/06 A3011 RMK AO2 SLP194 T01170061
KSMN 201556Z AUTO 00000KT 10SM CLR 08/06 A3010 RMK AO2 SLP196 T00830056
KSMN 201456Z AUTO 00000KT 10SM FEW065 06/04 A3010 RMK AO2 SLP192 T00610039 52022
KSMN 201356Z AUTO 00000KT 10SM OVC065 02/02 A3007 RMK AO2 SLP191 T00220017 FZRANO
KSMN 201256Z AUTO 00000KT 10SM FEW075 02/02 A3005 RMK AO2 SLP172 T00220017 FZRANO
KSMN 201156Z AUTO 00000KT 10SM SCT100 03/02 A3003 RMK AO2 SLP162 T00330022 10078 20033 53014
KSMN 200956Z AUTO 00000KT 10SM CLR 05/04 A2999 RMK AO2 SLP147 T00500039
KSMN 200856Z AUTO 17005KT 10SM FEW065 06/05 A2998 RMK AO2 SLP140 T00610050 53006
KSMN 200756Z AUTO 28003KT 10SM BKN110 07/06 A2997 RMK AO2 SLP136 T00670056
KSMN 200556Z AUTO 00000KT 10SM CLR 08/06 A2996 RMK AO2 SLP138 60000 T00780056 10200 20072 53006
KSMN 200456Z AUTO 15004KT 10SM CLR 09/06 A2995 RMK AO2 SLP136 T00940061